Time;durP1;ratioP1;P1;durP2;ratioP2;P2;SDS_P1;SDS_P2;PMS_P1;PMS_P2;Temp;Humidity;BMP_temperature;BMP_pressure;BME280_temperature;BME280_humidity;BME280_pressure;Samples;Min_cycle;Max_cycle;Signal;HPM_P1;HPM_P2
2021/11/03 00:00:09;;;;;;;17.30;10.70;;;7.60;99.90;;;;;;5065794;28;20204;-64
2021/11/03 00:02:35;;;;;;;17.30;11.97;;;7.50;99.90;;;;;;5066357;28;20622;-63
2021/11/03 00:05:01;;;;;;;21.30;11.50;;;7.50;99.90;;;;;;5066330;28;20161;-63
2021/11/03 00:07:29;;;;;;;14.57;11.10;;;7.50;99.90;;;;;;5066430;28;20168;-64
2021/11/03 00:09:59;;;;;;;14.10;11.00;;;7.50;99.90;;;;;;5066232;28;20196;-64
2021/11/03 00:12:26;;;;;;;17.30;10.90;;;7.50;99.90;;;;;;5065762;28;20216;-63
2021/11/03 00:14:52;;;;;;;16.63;11.63;;;7.50;99.90;;;;;;5065696;28;20705;-64
2021/11/03 00:17:17;;;;;;;17.90;11.33;;;7.50;99.90;;;;;;5066327;28;20161;-63
2021/11/03 00:19:43;;;;;;;17.67;10.83;;;7.40;99.90;;;;;;5066340;28;20188;-63
2021/11/03 00:22:09;;;;;;;15.30;11.13;;;7.40;99.90;;;;;;5066015;28;20183;-64
2021/11/03 00:24:35;;;;;;;18.80;12.17;;;7.40;99.90;;;;;;5066060;28;20164;-63
2021/11/03 00:27:02;;;;;;;17.63;11.67;;;7.40;99.90;;;;;;5065988;28;20224;-64
2021/11/03 00:29:28;;;;;;;20.90;12.40;;;7.40;99.90;;;;;;5065691;28;20180;-63
2021/11/03 00:31:53;;;;;;;15.50;12.33;;;7.40;99.90;;;;;;5065855;28;20202;-64
2021/11/03 00:34:19;;;;;;;15.13;11.70;;;7.40;99.90;;;;;;5066140;28;20243;-63
2021/11/03 00:36:45;;;;;;;18.37;11.70;;;7.30;99.90;;;;;;5065910;28;20157;-63
2021/11/03 00:39:10;;;;;;;22.57;11.83;;;7.30;99.90;;;;;;5065947;28;20225;-63
2021/11/03 00:41:36;;;;;;;16.90;11.63;;;7.30;99.90;;;;;;5065632;28;20677;-64
2021/11/03 00:44:03;;;;;;;17.10;11.80;;;7.30;99.90;;;;;;5065260;28;20231;-63
2021/11/03 00:46:28;;;;;;;20.07;12.50;;;7.30;99.90;;;;;;5066045;28;20584;-63
2021/11/03 00:48:54;;;;;;;16.90;11.70;;;7.30;99.90;;;;;;5065851;28;20171;-63
2021/11/03 00:51:20;;;;;;;18.07;12.47;;;7.30;99.90;;;;;;5068381;28;20168;-64
2021/11/03 00:53:45;;;;;;;24.35;13.20;;;7.20;99.90;;;;;;5069553;28;20842;-63
2021/11/03 00:56:11;;;;;;;19.47;12.17;;;7.30;99.90;;;;;;5069721;28;20160;-63
2021/11/03 00:58:37;;;;;;;19.07;12.73;;;7.30;99.90;;;;;;5069473;28;20165;-63
2021/11/03 01:01:03;;;;;;;20.70;11.07;;;7.30;99.90;;;;;;5069365;28;20725;-63
2021/11/03 01:03:29;;;;;;;17.47;12.03;;;7.30;99.90;;;;;;5069774;28;20172;-64
2021/11/03 01:05:54;;;;;;;19.93;11.20;;;7.30;99.90;;;;;;5069593;28;20181;-63
2021/11/03 01:08:20;;;;;;;20.80;11.53;;;7.40;99.90;;;;;;5068241;28;20173;-63
2021/11/03 01:10:49;;;;;;;15.70;10.53;;;7.40;99.90;;;;;;5069334;28;20173;-63
2021/11/03 01:13:18;;;;;;;14.90;10.80;;;7.40;99.90;;;;;;5069331;28;20580;-63
2021/11/03 01:15:45;;;;;;;15.33;10.63;;;7.40;99.90;;;;;;5067992;28;20176;-63
2021/11/03 01:18:10;;;;;;;14.63;10.47;;;7.40;99.90;;;;;;5069479;28;20618;-64
2021/11/03 01:20:37;;;;;;;15.70;11.40;;;7.40;99.90;;;;;;5069080;28;20199;-63
2021/11/03 01:23:05;;;;;;;13.50;10.13;;;7.40;99.90;;;;;;5069268;28;20175;-63
2021/11/03 01:25:31;;;;;;;16.27;10.23;;;7.40;99.90;;;;;;5069135;28;20175;-63
2021/11/03 01:27:57;;;;;;;19.27;10.20;;;7.40;99.90;;;;;;5069196;28;20173;-63
2021/11/03 01:30:24;;;;;;;14.23;11.03;;;7.30;99.90;;;;;;5068529;28;20191;-63
2021/11/03 01:32:51;;;;;;;15.40;10.37;;;7.30;99.90;;;;;;5068894;28;20192;-63
2021/11/03 01:35:18;;;;;;;14.07;10.23;;;7.30;99.90;;;;;;5069068;28;20172;-64
2021/11/03 01:37:44;;;;;;;15.80;10.40;;;7.20;99.90;;;;;;5069178;28;20161;-63
2021/11/03 01:40:23;;;;;;;16.17;10.00;;;7.20;99.90;;;;;;5068656;28;20164;-63
2021/11/03 01:42:49;;;;;;;14.13;11.50;;;7.20;99.90;;;;;;5068891;28;20165;-63
2021/11/03 01:45:18;;;;;;;17.17;11.50;;;7.20;99.90;;;;;;5068457;28;20180;-63
2021/11/03 01:47:53;;;;;;;19.83;11.50;;;7.30;99.90;;;;;;5068937;28;20214;-63
2021/11/03 01:50:27;;;;;;;15.10;11.13;;;7.40;99.90;;;;;;5068501;28;20211;-64
2021/11/03 01:53:12;;;;;;;19.37;11.63;;;7.60;99.90;;;;;;5068727;28;20188;-63
2021/11/03 01:55:52;;;;;;;15.80;11.00;;;7.60;99.90;;;;;;5067518;28;20248;-63
2021/11/03 01:58:27;;;;;;;17.30;11.27;;;7.40;99.90;;;;;;5068713;28;20152;-63
2021/11/03 02:00:56;;;;;;;16.23;10.47;;;7.20;99.90;;;;;;5067335;28;20180;-63
2021/11/03 02:03:27;;;;;;;14.20;10.17;;;7.00;99.90;;;;;;5068627;28;20161;-63
2021/11/03 02:06:18;;;;;;;15.00;10.33;;;6.90;99.90;;;;;;5068535;28;20172;-63
2021/11/03 02:08:46;;;;;;;13.67;10.40;;;6.90;99.90;;;;;;5068171;28;20188;-63
2021/11/03 02:11:13;;;;;;;18.53;9.90;;;6.90;99.90;;;;;;5067819;28;20183;-63
2021/11/03 02:13:40;;;;;;;17.07;10.70;;;6.90;99.90;;;;;;5068114;28;20191;-63
2021/11/03 02:16:09;;;;;;;13.53;10.60;;;7.00;99.90;;;;;;5068280;28;20157;-63
2021/11/03 02:18:36;;;;;;;18.43;11.00;;;7.00;99.90;;;;;;5068192;28;20263;-63
2021/11/03 02:21:03;;;;;;;15.40;11.00;;;7.00;99.90;;;;;;5068053;28;20191;-63
2021/11/03 02:23:45;;;;;;;14.97;10.90;;;7.00;99.90;;;;;;5066991;28;20165;-63
2021/11/03 02:26:25;;;;;;;18.13;11.60;;;7.10;99.90;;;;;;5068025;28;20179;-64
2021/11/03 02:28:50;;;;;;;17.80;10.97;;;7.00;99.90;;;;;;5067842;28;20157;-63
2021/11/03 02:31:38;;;;;;;17.83;11.83;;;7.00;99.90;;;;;;5067870;28;20175;-63
2021/11/03 02:34:07;;;;;;;19.03;12.00;;;7.10;99.90;;;;;;5067915;28;20177;-63
2021/11/03 02:36:34;;;;;;;20.20;11.57;;;7.20;99.90;;;;;;5066360;28;20195;-63
2021/11/03 02:39:06;;;;;;;17.00;12.23;;;7.20;99.90;;;;;;5067835;28;20243;-63
2021/11/03 02:41:34;;;;;;;17.97;11.47;;;7.20;99.90;;;;;;5067542;28;20203;-63
2021/11/03 02:44:11;;;;;;;23.60;12.53;;;7.10;99.90;;;;;;5067331;28;20173;-63
2021/11/03 02:46:37;;;;;;;17.27;12.23;;;7.00;99.90;;;;;;5067905;28;20145;-64
2021/11/03 02:49:04;;;;;;;15.53;11.07;;;7.00;99.90;;;;;;5067634;28;20168;-63
2021/11/03 02:51:39;;;;;;;16.73;11.50;;;7.10;99.90;;;;;;5067467;28;20189;-64
2021/11/03 02:54:14;;;;;;;13.80;11.40;;;7.20;99.90;;;;;;5067618;28;20180;-63
2021/11/03 02:56:47;;;;;;;18.43;11.13;;;7.20;99.90;;;;;;5067338;28;20186;-63
2021/11/03 02:59:16;;;;;;;14.47;11.60;;;7.30;99.90;;;;;;5067265;28;20193;-63
2021/11/03 03:01:51;;;;;;;17.17;11.57;;;7.30;99.90;;;;;;5067205;28;20171;-63
2021/11/03 03:04:30;;;;;;;15.90;10.70;;;7.30;99.90;;;;;;5067523;28;20156;-63
2021/11/03 03:06:57;;;;;;;13.77;10.40;;;7.20;99.90;;;;;;5067360;28;20164;-63
2021/11/03 03:09:24;;;;;;;13.77;10.53;;;7.10;99.90;;;;;;5067421;28;20218;-63
2021/11/03 03:11:54;;;;;;;16.00;11.17;;;7.00;99.90;;;;;;5066827;28;20204;-64
2021/11/03 03:14:23;;;;;;;16.43;11.40;;;7.10;99.90;;;;;;5065865;28;20279;-63
2021/11/03 03:16:49;;;;;;;18.30;11.13;;;7.20;99.90;;;;;;5067243;28;20161;-63
2021/11/03 03:19:15;;;;;;;13.93;10.30;;;7.20;99.90;;;;;;5066966;28;20214;-63
2021/11/03 03:21:43;;;;;;;16.03;10.73;;;7.10;99.90;;;;;;5066768;28;20190;-63
2021/11/03 03:24:11;;;;;;;15.37;10.33;;;7.00;99.90;;;;;;5067046;28;20161;-63
2021/11/03 03:26:39;;;;;;;20.33;11.77;;;7.10;99.90;;;;;;5066812;28;20165;-63
2021/11/03 03:29:05;;;;;;;20.50;12.03;;;7.40;99.90;;;;;;5066386;28;20203;-63
2021/11/03 03:31:32;;;;;;;16.13;11.57;;;7.50;99.90;;;;;;5066671;28;20236;-64
2021/11/03 03:34:00;;;;;;;19.63;11.53;;;7.40;99.90;;;;;;5066800;28;20610;-63
2021/11/03 03:36:26;;;;;;;15.27;11.30;;;7.40;99.90;;;;;;5066775;28;20182;-63
2021/11/03 03:38:53;;;;;;;16.67;11.07;;;7.20;99.90;;;;;;5066751;28;20164;-63
2021/11/03 03:41:20;;;;;;;19.23;11.00;;;7.10;99.90;;;;;;5066505;28;20164;-63
2021/11/03 03:43:45;;;;;;;14.80;11.00;;;7.10;99.90;;;;;;5066337;28;20176;-63
2021/11/03 03:46:12;;;;;;;15.10;10.83;;;7.10;99.90;;;;;;5066319;28;20169;-63
2021/11/03 03:48:38;;;;;;;16.00;10.60;;;7.10;99.90;;;;;;5066723;28;20172;-63
2021/11/03 03:51:04;;;;;;;13.40;10.67;;;7.10;99.90;;;;;;5066157;28;20175;-64
2021/11/03 03:53:30;;;;;;;15.47;10.63;;;7.00;99.90;;;;;;5066608;28;20268;-63
2021/11/03 03:55:56;;;;;;;14.00;10.67;;;7.10;99.90;;;;;;5066279;28;20161;-63
2021/11/03 03:58:21;;;;;;;14.83;10.40;;;7.20;99.90;;;;;;5066522;28;20160;-64
2021/11/03 04:00:49;;;;;;;17.50;11.67;;;7.20;99.90;;;;;;5065896;28;20185;-63
2021/11/03 04:03:15;;;;;;;14.93;11.00;;;7.20;99.90;;;;;;5066223;28;20169;-63
2021/11/03 04:05:44;;;;;;;14.57;11.03;;;7.20;99.90;;;;;;5066502;28;20192;-63
2021/11/03 04:08:11;;;;;;;16.77;11.00;;;7.30;99.90;;;;;;5066419;28;20164;-63
2021/11/03 04:10:38;;;;;;;15.37;10.80;;;7.30;99.90;;;;;;5066118;28;20210;-63
2021/11/03 04:13:04;;;;;;;20.60;11.20;;;7.30;99.90;;;;;;5066010;28;20212;-63
2021/11/03 04:15:30;;;;;;;19.17;10.80;;;7.10;99.90;;;;;;5066074;28;20227;-63
2021/11/03 04:17:56;;;;;;;14.63;10.27;;;7.00;99.90;;;;;;5065039;28;20161;-63
2021/11/03 04:20:22;;;;;;;13.27;9.97;;;6.90;99.90;;;;;;5065805;28;20152;-63
2021/11/03 04:22:47;;;;;;;13.03;9.87;;;6.70;99.90;;;;;;5066011;28;20172;-63
2021/11/03 04:25:14;;;;;;;15.40;10.63;;;6.70;99.90;;;;;;5065919;28;20173;-63
2021/11/03 04:27:40;;;;;;;14.80;9.93;;;6.70;99.90;;;;;;5065940;28;20157;-63
2021/11/03 04:30:08;;;;;;;14.10;9.90;;;6.70;99.90;;;;;;5065768;28;20184;-63
2021/11/03 04:32:34;;;;;;;11.77;9.97;;;6.70;99.90;;;;;;5065817;28;20211;-64
2021/11/03 04:35:00;;;;;;;12.13;9.27;;;6.70;99.90;;;;;;5066280;28;20161;-63
2021/11/03 04:37:25;;;;;;;12.67;9.17;;;6.80;99.90;;;;;;5065934;28;20176;-63
2021/11/03 04:39:51;;;;;;;13.20;9.17;;;6.70;99.90;;;;;;5065805;28;20218;-63
2021/11/03 04:42:17;;;;;;;10.67;8.00;;;6.70;99.90;;;;;;5065633;28;20172;-63
2021/11/03 04:44:42;;;;;;;15.47;9.57;;;6.50;99.90;;;;;;5065633;28;20165;-63
2021/11/03 04:47:09;;;;;;;11.17;9.50;;;6.50;99.90;;;;;;5065888;28;20172;-63
2021/11/03 04:49:35;;;;;;;17.77;10.00;;;6.50;99.90;;;;;;5065802;28;20171;-63
2021/11/03 04:52:02;;;;;;;19.20;11.93;;;6.40;99.90;;;;;;5065615;28;20168;-63
2021/11/03 04:54:28;;;;;;;16.17;11.33;;;6.40;99.90;;;;;;5064582;28;20195;-63
2021/11/03 04:56:53;;;;;;;25.13;12.07;;;6.50;99.90;;;;;;5065917;28;20188;-63
2021/11/03 04:59:19;;;;;;;15.53;11.07;;;6.60;99.90;;;;;;5064275;28;20569;-63
2021/11/03 05:01:45;;;;;;;14.67;11.40;;;6.70;99.90;;;;;;5065307;28;20169;-63
2021/11/03 05:04:11;;;;;;;22.67;11.17;;;6.70;99.90;;;;;;5065687;28;20161;-63
2021/11/03 05:06:39;;;;;;;12.10;10.13;;;6.80;99.90;;;;;;5065487;28;20157;-63
2021/11/03 05:09:07;;;;;;;13.53;10.63;;;6.70;99.90;;;;;;5065723;28;20183;-63
2021/11/03 05:11:33;;;;;;;12.83;10.03;;;6.80;99.90;;;;;;5065148;28;20201;-63
2021/11/03 05:13:59;;;;;;;11.67;9.83;;;6.80;99.90;;;;;;5063884;28;20177;-63
2021/11/03 05:16:26;;;;;;;13.67;9.53;;;6.80;99.90;;;;;;5065620;28;20157;-63
2021/11/03 05:18:52;;;;;;;16.47;11.33;;;6.70;99.90;;;;;;5065576;28;20228;-63
2021/11/03 05:21:18;;;;;;;11.87;9.63;;;6.70;99.90;;;;;;5065406;28;20169;-63
2021/11/03 05:23:44;;;;;;;15.00;10.20;;;6.70;99.90;;;;;;5065649;28;20592;-63
2021/11/03 05:26:15;;;;;;;10.97;9.80;;;6.60;99.90;;;;;;5065433;28;20169;-63
2021/11/03 05:28:42;;;;;;;13.70;10.03;;;6.70;99.90;;;;;;5064251;28;20157;-63
2021/11/03 05:31:08;;;;;;;14.13;10.87;;;6.70;99.90;;;;;;5065034;28;20219;-63
2021/11/03 05:33:33;;;;;;;14.87;11.13;;;6.70;99.90;;;;;;5065390;28;20185;-63
2021/11/03 05:35:59;;;;;;;20.20;12.70;;;6.70;99.90;;;;;;5065568;28;20161;-63
2021/11/03 05:38:25;;;;;;;21.60;13.87;;;6.70;99.90;;;;;;5069106;28;20169;-63
2021/11/03 05:40:51;;;;;;;25.70;13.77;;;6.70;99.90;;;;;;5068796;28;20228;-63
2021/11/03 05:43:16;;;;;;;22.23;12.13;;;6.80;99.90;;;;;;5068976;28;20168;-63
2021/11/03 05:45:42;;;;;;;18.83;12.60;;;6.80;99.90;;;;;;5068506;28;20177;-63
2021/11/03 05:48:08;;;;;;;18.20;13.97;;;6.80;99.90;;;;;;5069033;28;20177;-63
2021/11/03 05:50:34;;;;;;;22.67;13.93;;;6.90;99.90;;;;;;5068464;28;20211;-63
2021/11/03 05:53:01;;;;;;;22.03;15.17;;;7.10;99.90;;;;;;5068615;28;20185;-63
2021/11/03 05:55:28;;;;;;;24.07;14.20;;;7.00;99.90;;;;;;5068744;28;20171;-63
2021/11/03 05:57:54;;;;;;;24.20;13.90;;;6.80;99.90;;;;;;5068801;28;20496;-63
2021/11/03 06:00:24;;;;;;;21.40;14.43;;;6.80;99.90;;;;;;5068256;28;20172;-63
2021/11/03 06:02:50;;;;;;;31.03;14.43;;;6.80;99.90;;;;;;5068486;28;20171;-63
2021/11/03 06:05:17;;;;;;;20.87;15.07;;;7.00;99.90;;;;;;5068604;28;20188;-63
2021/11/03 06:07:54;;;;;;;22.73;14.80;;;7.00;99.90;;;;;;5068543;28;20199;-64
2021/11/03 06:10:27;;;;;;;21.63;14.20;;;6.90;99.90;;;;;;5068252;28;20171;-63
2021/11/03 06:12:53;;;;;;;18.03;13.43;;;6.70;99.90;;;;;;5067953;28;20224;-63
2021/11/03 06:15:19;;;;;;;18.70;12.83;;;6.50;99.90;;;;;;5067941;28;20175;-63
2021/11/03 06:17:45;;;;;;;17.33;13.10;;;6.30;99.90;;;;;;5068283;28;20160;-63
2021/11/03 06:20:11;;;;;;;17.10;12.13;;;6.40;99.90;;;;;;5068112;28;20167;-63
2021/11/03 06:22:36;;;;;;;19.17;13.23;;;6.40;99.90;;;;;;5067993;28;20664;-63
2021/11/03 06:25:05;;;;;;;18.37;12.47;;;6.40;99.90;;;;;;5068215;28;20164;-63
2021/11/03 06:27:31;;;;;;;18.77;13.27;;;6.40;99.90;;;;;;5066990;28;20751;-63
2021/11/03 06:29:57;;;;;;;19.40;13.00;;;6.40;99.90;;;;;;5067502;28;20209;-63
2021/11/03 06:32:22;;;;;;;19.87;13.33;;;6.40;99.90;;;;;;5067668;28;20207;-63
2021/11/03 06:34:48;;;;;;;17.17;13.00;;;6.30;99.90;;;;;;5067735;28;20161;-63
2021/11/03 06:37:13;;;;;;;18.63;12.70;;;6.40;99.90;;;;;;5067758;28;20645;-63
2021/11/03 06:39:39;;;;;;;18.00;12.77;;;6.50;99.90;;;;;;5067816;28;20157;-63
2021/11/03 06:42:06;;;;;;;20.90;12.97;;;6.50;99.90;;;;;;5067380;28;20177;-63
2021/11/03 06:44:32;;;;;;;19.27;12.77;;;6.40;99.90;;;;;;5065968;28;20535;-63
2021/11/03 06:46:57;;;;;;;18.83;12.30;;;6.50;99.90;;;;;;5067518;28;20180;-63
2021/11/03 06:49:23;;;;;;;19.80;12.03;;;6.40;99.90;;;;;;5067464;28;20264;-63
2021/11/03 06:51:49;;;;;;;17.97;12.63;;;6.50;99.90;;;;;;5066090;28;20172;-63
2021/11/03 06:54:15;;;;;;;20.60;12.50;;;6.50;99.90;;;;;;5067337;28;20189;-63
2021/11/03 06:56:41;;;;;;;17.27;12.30;;;6.60;99.90;;;;;;5067413;28;20160;-63
2021/11/03 06:59:07;;;;;;;20.13;14.25;;;6.60;99.90;;;;;;5066656;28;20404;-63
2021/11/03 07:01:33;;;;;;;14.53;12.60;;;6.60;99.90;;;;;;5065583;28;20165;-63
2021/11/03 07:04:00;;;;;;;17.27;12.47;;;6.50;99.90;;;;;;5067222;28;20168;-63
2021/11/03 07:06:26;;;;;;;21.57;12.70;;;6.50;99.90;;;;;;5066931;28;20637;-63
2021/11/03 07:08:54;;;;;;;20.05;14.95;;;6.40;99.90;;;;;;5064986;28;20415;-63
2021/11/03 07:11:20;;;;;;;14.07;11.47;;;6.80;99.90;;;;;;5066319;28;20169;-63
2021/11/03 07:13:46;;;;;;;20.27;13.50;;;6.80;99.90;;;;;;5066941;28;20188;-63
2021/11/03 07:16:13;;;;;;;19.83;13.13;;;6.80;99.90;;;;;;5066741;28;20161;-63
2021/11/03 07:18:39;;;;;;;20.50;14.30;;;7.00;99.90;;;;;;5066939;28;20167;-63
2021/11/03 07:21:05;;;;;;;21.13;14.10;;;6.90;99.90;;;;;;5067020;28;20168;-63
2021/11/03 07:23:31;;;;;;;21.93;14.57;;;6.70;99.90;;;;;;5066787;28;20171;-63
2021/11/03 07:25:57;;;;;;;24.88;17.48;;;6.60;99.90;;;;;;5066032;28;20416;-63
2021/11/03 07:28:23;;;;;;;22.13;16.20;;;6.70;99.90;;;;;;5066374;28;20224;-63
2021/11/03 07:30:49;;;;;;;20.83;14.97;;;6.70;99.90;;;;;;5065750;28;20252;-63
2021/11/03 07:33:16;;;;;;;17.27;14.07;;;6.60;99.90;;;;;;5066380;28;20195;-63
2021/11/03 07:35:43;;;;;;;20.30;13.83;;;6.60;99.90;;;;;;5066293;28;20541;-63
2021/11/03 07:38:10;;;;;;;18.73;12.87;;;6.60;99.90;;;;;;5066627;28;20157;-65
2021/11/03 07:40:42;;;;;;;20.17;14.10;;;6.60;99.90;;;;;;5066410;28;20606;-66
2021/11/03 07:43:10;;;;;;;20.23;13.80;;;6.70;99.90;;;;;;5066268;28;20669;-65
2021/11/03 07:45:36;;;;;;;22.40;14.93;;;7.20;99.90;;;;;;5066024;28;20173;-65
2021/11/03 07:48:04;;;;;;;19.23;14.83;;;7.50;99.90;;;;;;5066163;28;20161;-65
2021/11/03 07:50:34;;;;;;;19.13;15.60;;;7.70;99.90;;;;;;5064928;28;20168;-65
2021/11/03 07:53:00;;;;;;;29.67;16.47;;;7.40;99.90;;;;;;5066008;28;20188;-65
2021/11/03 07:55:26;;;;;;;26.97;16.63;;;7.10;99.90;;;;;;5064982;28;20199;-65
2021/11/03 07:57:51;;;;;;;29.70;17.20;;;7.20;99.90;;;;;;5066368;28;20157;-65
2021/11/03 08:00:25;;;;;;;27.00;19.53;;;7.20;99.90;;;;;;5063841;28;20195;-65
2021/11/03 08:02:50;;;;;;;26.03;18.33;;;7.30;99.90;;;;;;5066164;28;20183;-65
2021/11/03 08:05:16;;;;;;;28.13;18.07;;;7.20;99.90;;;;;;5066004;28;20161;-66
2021/11/03 08:07:42;;;;;;;27.77;18.43;;;7.10;99.90;;;;;;5065557;28;20244;-65
2021/11/03 08:10:13;;;;;;;24.70;17.67;;;7.00;99.90;;;;;;5065110;28;20160;-65
2021/11/03 08:12:40;;;;;;;27.73;18.43;;;7.10;99.90;;;;;;5065586;28;20303;-65
2021/11/03 08:15:06;;;;;;;23.60;18.00;;;7.10;99.90;;;;;;5065840;28;20169;-65
2021/11/03 08:17:32;;;;;;;29.90;20.93;;;7.20;99.90;;;;;;5064609;28;20176;-65
2021/11/03 08:20:03;;;;;;;26.37;19.03;;;7.40;99.90;;;;;;5065757;28;20160;-65
2021/11/03 08:22:31;;;;;;;28.20;18.87;;;7.70;99.90;;;;;;5065434;28;20259;-66
2021/11/03 08:24:57;;;;;;;28.80;18.50;;;7.70;99.90;;;;;;5065887;28;20167;-66
2021/11/03 08:27:23;;;;;;;24.53;18.60;;;7.70;99.90;;;;;;5065720;28;20161;-65
2021/11/03 08:29:50;;;;;;;27.63;20.53;;;7.70;99.90;;;;;;5065563;28;20249;-66
2021/11/03 08:32:21;;;;;;;29.97;18.40;;;7.70;99.90;;;;;;5065517;28;20168;-65
2021/11/03 08:34:49;;;;;;;24.37;17.53;;;7.70;99.90;;;;;;5065557;28;20144;-66
2021/11/03 08:37:19;;;;;;;25.63;17.50;;;7.70;99.90;;;;;;5065683;28;20160;-65
2021/11/03 08:39:53;;;;;;;23.93;18.50;;;7.70;99.90;;;;;;5065620;28;20177;-65
2021/11/03 08:42:19;;;;;;;21.10;16.53;;;7.70;99.90;;;;;;5063754;28;20661;-65
2021/11/03 08:44:44;;;;;;;22.47;16.43;;;7.70;99.90;;;;;;5065339;28;20165;-65
2021/11/03 08:47:11;;;;;;;20.30;14.97;;;7.60;99.90;;;;;;5064039;28;20168;-66
2021/11/03 08:49:38;;;;;;;24.63;16.00;;;7.50;99.90;;;;;;5063955;28;20553;-66
2021/11/03 08:52:04;;;;;;;19.47;14.83;;;7.40;99.90;;;;;;5065203;28;20223;-66
2021/11/03 08:54:32;;;;;;;21.63;15.03;;;7.30;99.90;;;;;;5065237;28;20196;-66
2021/11/03 08:56:58;;;;;;;21.87;16.47;;;7.20;99.90;;;;;;5065377;28;20168;-65
2021/11/03 08:59:24;;;;;;;24.47;17.47;;;7.20;99.90;;;;;;5064877;28;20216;-67
2021/11/03 09:01:50;;;;;;;22.40;17.27;;;7.30;99.90;;;;;;5065121;28;20165;-66
2021/11/03 09:04:16;;;;;;;23.90;18.30;;;7.40;99.90;;;;;;5065499;28;20199;-65
2021/11/03 09:06:41;;;;;;;25.87;17.87;;;7.50;99.90;;;;;;5065359;28;20176;-65
2021/11/03 09:09:07;;;;;;;26.17;17.70;;;7.60;99.90;;;;;;5065270;28;20187;-65
2021/11/03 09:11:34;;;;;;;27.20;18.93;;;7.60;99.90;;;;;;5066196;28;20216;-64
2021/11/03 09:14:00;;;;;;;32.00;19.87;;;7.70;99.90;;;;;;5068930;28;20644;-65
2021/11/03 09:16:26;;;;;;;28.33;19.23;;;8.00;99.90;;;;;;5067160;28;20205;-64
2021/11/03 09:18:52;;;;;;;30.03;18.97;;;8.10;99.90;;;;;;5068985;28;20176;-64
2021/11/03 09:21:18;;;;;;;34.13;22.37;;;8.30;99.90;;;;;;5068748;28;20176;-64
2021/11/03 09:23:46;;;;;;;35.27;21.97;;;8.20;99.90;;;;;;5069084;28;20175;-64
2021/11/03 09:26:12;;;;;;;29.73;18.93;;;8.10;99.90;;;;;;5068426;28;20232;-64
2021/11/03 09:28:40;;;;;;;34.60;20.60;;;8.10;99.90;;;;;;5068475;28;20165;-64
2021/11/03 09:31:08;;;;;;;27.33;18.40;;;8.10;99.90;;;;;;5068240;28;20168;-65
2021/11/03 09:33:35;;;;;;;30.98;21.55;;;8.10;99.90;;;;;;5068220;28;20503;-65
2021/11/03 09:36:02;;;;;;;31.60;22.27;;;7.90;99.90;;;;;;5069081;28;20156;-65
2021/11/03 09:38:29;;;;;;;34.80;19.83;;;7.80;99.90;;;;;;5068512;28;20229;-67
2021/11/03 09:41:00;;;;;;;31.67;18.63;;;7.70;99.90;;;;;;5068536;28;20195;-66
2021/11/03 09:43:39;;;;;;;34.58;22.30;;;7.60;99.90;;;;;;5068135;28;20442;-67
2021/11/03 09:46:35;;;;;;;32.23;22.73;;;7.50;99.90;;;;;;5068590;28;20191;-66
2021/11/03 09:49:10;;;;;;;50.50;22.73;;;7.40;99.90;;;;;;5068815;28;20715;-66
2021/11/03 09:51:38;;;;;;;38.13;21.40;;;7.40;99.90;;;;;;5068730;28;20183;-66
2021/11/03 09:54:14;;;;;;;36.80;20.90;;;7.30;99.90;;;;;;5068753;28;20271;-66
2021/11/03 09:56:46;;;;;;;88.57;26.77;;;7.40;99.90;;;;;;5068728;28;20144;-64
2021/11/03 09:59:33;;;;;;;101.57;41.70;;;7.40;99.90;;;;;;5068416;28;20145;-65
2021/11/03 10:02:22;;;;;;;58.87;27.37;;;7.70;99.90;;;;;;5068307;28;20172;-65
2021/11/03 10:05:17;;;;;;;57.77;23.70;;;8.00;99.90;;;;;;5068683;28;20153;-65
2021/11/03 10:07:51;;;;;;;61.10;22.40;;;8.00;99.90;;;;;;5068587;28;20160;-65
2021/11/03 10:10:23;;;;;;;43.33;21.53;;;7.80;99.90;;;;;;5068558;28;20152;-65
2021/11/03 10:12:49;;;;;;;54.43;22.30;;;7.60;99.90;;;;;;5067847;28;20208;-65
2021/11/03 10:15:23;;;;;;;66.47;26.80;;;7.70;99.90;;;;;;5067802;28;20165;-65
2021/11/03 10:18:17;;;;;;;62.90;25.23;;;8.10;99.90;;;;;;5067040;28;20156;-65
2021/11/03 10:20:58;;;;;;;51.53;24.87;;;8.70;99.90;;;;;;5068262;28;20161;-65
2021/11/03 10:23:27;;;;;;;58.87;24.87;;;8.70;99.90;;;;;;5067655;28;20164;-65
2021/11/03 10:26:09;;;;;;;57.13;25.93;;;8.60;99.90;;;;;;5068197;28;20214;-65
2021/11/03 10:28:46;;;;;;;54.37;24.57;;;8.50;99.90;;;;;;5068143;28;20172;-65
2021/11/03 10:31:23;;;;;;;52.83;23.13;;;8.70;99.90;;;;;;5067672;28;20537;-65
2021/11/03 10:33:57;;;;;;;45.63;22.20;;;8.80;99.90;;;;;;5066494;28;20196;-65
2021/11/03 10:36:24;;;;;;;42.10;22.63;;;8.90;99.90;;;;;;5067967;28;20153;-65
2021/11/03 10:38:57;;;;;;;39.47;23.40;;;8.80;99.90;;;;;;5067911;28;20592;-65
2021/11/03 10:41:26;;;;;;;33.97;20.97;;;8.90;99.90;;;;;;5066307;28;20172;-65
2021/11/03 10:44:11;;;;;;;41.17;22.60;;;8.90;99.90;;;;;;5067664;28;20173;-65
2021/11/03 10:46:53;;;;;;;35.07;22.13;;;9.30;99.90;;;;;;5067593;28;20180;-65
2021/11/03 10:49:34;;;;;;;30.80;20.97;;;9.50;99.90;;;;;;5067773;28;20555;-65
2021/11/03 10:52:16;;;;;;;35.03;21.80;;;9.50;99.90;;;;;;5067364;28;20172;-65
2021/11/03 10:54:49;;;;;;;29.17;19.60;;;9.40;99.90;;;;;;5067695;28;20145;-65
2021/11/03 10:57:41;;;;;;;29.83;19.63;;;9.50;99.90;;;;;;5067461;28;20168;-65
2021/11/03 11:00:31;;;;;;;29.40;19.57;;;9.70;99.90;;;;;;5067314;28;20173;-65
2021/11/03 11:03:19;;;;;;;27.95;18.23;;;9.80;99.90;;;;;;5067347;28;20164;-65
2021/11/03 11:05:55;;;;;;;30.15;17.23;;;10.00;99.90;;;;;;5067433;28;20296;-65
2021/11/03 11:08:27;;;;;;;26.92;18.90;;;10.10;99.90;;;;;;5067266;28;20168;-65
2021/11/03 11:11:08;;;;;;;28.75;18.38;;;10.10;99.90;;;;;;5067116;28;20153;-65
2021/11/03 11:13:41;;;;;;;29.05;18.02;;;10.40;99.90;;;;;;5067119;28;20207;-65
2021/11/03 11:16:12;;;;;;;25.67;14.85;;;10.60;99.90;;;;;;5066941;28;20252;-65
2021/11/03 11:18:43;;;;;;;21.98;14.93;;;10.60;99.90;;;;;;5067146;28;20187;-65
2021/11/03 11:21:29;;;;;;;22.33;14.32;;;10.90;99.90;;;;;;5066729;28;20161;-65
2021/11/03 11:24:09;;;;;;;22.52;15.02;;;11.10;99.90;;;;;;5066258;28;20418;-65
2021/11/03 11:26:41;;;;;;;22.77;13.88;;;11.20;99.90;;;;;;5066684;28;20159;-66
2021/11/03 11:29:28;;;;;;;21.98;13.07;;;11.30;99.90;;;;;;5066999;28;20164;-65
2021/11/03 11:32:31;;;;;;;17.55;12.63;;;11.40;99.90;;;;;;5066641;28;20187;-65
2021/11/03 11:35:14;;;;;;;16.50;12.13;;;11.50;99.90;;;;;;5066101;28;20172;-65
2021/11/03 11:37:42;;;;;;;16.70;11.77;;;11.70;99.90;;;;;;5065489;28;20161;-65
2021/11/03 11:40:17;;;;;;;18.92;10.48;;;11.40;99.90;;;;;;5065618;28;20173;-65
2021/11/03 11:42:50;;;;;;;13.35;9.73;;;11.30;99.90;;;;;;5066429;28;20172;-65
2021/11/03 11:45:24;;;;;;;15.25;9.38;;;11.30;99.90;;;;;;5066151;28;20638;-65
2021/11/03 11:48:03;;;;;;;13.15;10.23;;;11.20;99.90;;;;;;5065775;28;20407;-65
2021/11/03 11:50:47;;;;;;;15.15;10.15;;;11.80;99.90;;;;;;5066306;28;20218;-65
2021/11/03 11:53:37;;;;;;;14.55;9.68;;;11.80;99.90;;;;;;5066266;28;20198;-65
2021/11/03 11:56:06;;;;;;;16.15;10.50;;;11.70;99.90;;;;;;5065294;28;20255;-65
2021/11/03 11:58:34;;;;;;;11.65;9.00;;;11.80;99.90;;;;;;5066497;28;20157;-65
2021/11/03 12:01:12;;;;;;;11.80;9.60;;;11.80;99.90;;;;;;5065997;28;20169;-65
2021/11/03 12:03:42;;;;;;;15.23;9.32;;;11.80;99.90;;;;;;5066279;28;20175;-65
2021/11/03 12:06:10;;;;;;;14.10;9.43;;;11.90;99.90;;;;;;5065054;28;20187;-65
2021/11/03 12:08:57;;;;;;;10.77;9.25;;;12.00;99.90;;;;;;5066385;28;20171;-66
2021/11/03 12:11:29;;;;;;;15.05;9.85;;;12.00;99.90;;;;;;5065850;28;20650;-65
2021/11/03 12:14:20;;;;;;;11.95;10.48;;;11.90;99.90;;;;;;5066032;28;20200;-65
2021/11/03 12:17:15;;;;;;;19.20;11.38;;;11.90;99.90;;;;;;5065897;28;20171;-65
2021/11/03 12:19:57;;;;;;;16.50;11.98;;;11.70;99.90;;;;;;5065985;28;20164;-65
2021/11/03 12:22:28;;;;;;;13.55;11.90;;;11.80;99.90;;;;;;5064586;28;20176;-65
2021/11/03 12:25:13;;;;;;;15.38;11.50;;;11.80;99.90;;;;;;5066081;28;20161;-65
2021/11/03 12:27:39;;;;;;;17.20;12.43;;;11.80;99.90;;;;;;5065894;28;20187;-65
2021/11/03 12:30:07;;;;;;;17.33;12.77;;;11.70;99.90;;;;;;5065783;28;20169;-65
2021/11/03 12:32:59;;;;;;;18.30;12.55;;;11.90;99.90;;;;;;5065515;28;20192;-65
2021/11/03 12:35:25;;;;;;;13.48;11.18;;;11.90;99.90;;;;;;5065524;28;20183;-65
2021/11/03 12:38:26;;;;;;;15.00;11.02;;;11.90;99.90;;;;;;5065889;28;20164;-65
2021/11/03 12:40:52;;;;;;;15.18;11.32;;;11.90;99.90;;;;;;5065849;28;20572;-65
2021/11/03 12:43:33;;;;;;;15.43;11.45;;;11.90;99.90;;;;;;5065609;28;20267;-65
2021/11/03 12:46:08;;;;;;;12.68;10.52;;;12.00;99.90;;;;;;5067510;28;20247;-65
2021/11/03 12:48:44;;;;;;;14.65;10.80;;;12.20;99.90;;;;;;5069975;28;20641;-65